Bitflower — SBJE — position and weather

sailwx.info

Track history (hours):
 
Tides and Currents Weather Stations Pressure Air Temp Water Temp Dewpoint Dewpoint Depression Visibility Wind Speed Wind Dir Waves Ship Positions

Bitflower

Last reported at 2014-Oct-21 13:33 UTC. Time now 2014-Oct-21 13:43 UTC.
Position N 53°42' E 005°41'.

Length 116 m; draft 6.5 m.

Type: Ship. MMSI: 266009000.

Date/timePositionNaut miles runAvg speedWind from/ knotsBaromVisibWave heightAir tempDewpointWater temp
2014-Oct-21 13:33N 53°42' E 005°41'1010.3
2014-Oct-21 12:33N 53°45' E 005°57'6010.9
2014-Oct-21 07:05N 54°00' E 007°35'510.1
2014-Oct-21 06:34N 54°01' E 007°44'1111.0
2014-Oct-21 05:34N 54°01' E 008°03'1312.1
2014-Oct-21 04:30N 53°59' E 008°24'1414.4
2014-Oct-21 03:33N 53°52' E 008°44'1515.1
2014-Oct-21 02:33N 53°53' E 009°09'1312.8
2014-Oct-21 01:33N 53°44' E 009°26'1212.2
2014-Oct-21 00:33N 53°35' E 009°38'1111.2
2014-Oct-20 23:33N 53°32' E 009°56'3 3.3
2014-Oct-20 22:30N 53°29' E 009°57'0 0.0
2014-Oct-20 21:30N 53°29' E 009°57'0 0.0
2014-Oct-20 20:33N 53°29' E 009°57'0 0.0
2014-Oct-20 19:33N 53°29' E 009°57'0 0.0
2014-Oct-20 18:30N 53°29' E 009°57'0 0.0
2014-Oct-20 17:30N 53°29' E 009°57'0 0.0
2014-Oct-20 16:30N 53°29' E 009°57'0 0.0
2014-Oct-20 15:30N 53°29' E 009°57'0 0.0
2014-Oct-20 14:33N 53°29' E 009°57'0 0.0
2014-Oct-20 13:33N 53°29' E 009°57'0 0.0
2014-Oct-20 12:33N 53°29' E 009°57'0 0.0
2014-Oct-20 11:33N 53°29' E 009°57'0 0.0
2014-Oct-20 10:33N 53°29' E 009°57'4 4.3
2014-Oct-20 09:33N 53°32' E 009°54'9 8.6
2014-Oct-20 08:33N 53°34' E 009°40'7 7.1
2014-Oct-20 07:33N 53°39' E 009°31'8 7.5
2014-Oct-20 06:33N 53°45' E 009°24'9 6.8
2014-Oct-20 05:10N 53°53' E 009°15'4 6.4
2014-Oct-20 04:33N 53°53' E 009°08'3 2.9
2014-Oct-20 03:33N 53°55' E 009°12'19 7.7
2014-Oct-20 01:05N 54°11' E 009°30'4 8.2
2014-Oct-20 00:33N 54°14' E 009°36'8 7.5
2014-Oct-19 23:33N 54°20' E 009°44'7 7.4
2014-Oct-19 22:33N 54°20' E 009°56'6 6.0
2014-Oct-19 21:33N 54°22' E 010°06'4 4.1
2014-Oct-19 20:33N 54°24' E 010°12'9 8.9
2014-Oct-19 19:32N 54°32' E 010°19'0 0.3
2014-Oct-19 18:31N 54°33' E 010°19'0 0.0
2014-Oct-19 17:25N 54°33' E 010°19'0 0.0
2014-Oct-19 16:25N 54°33' E 010°19'0 0.0
2014-Oct-19 15:19N 54°33' E 010°19'0 0.0
2014-Oct-19 14:31N 54°33' E 010°19'0 0.0
2014-Oct-19 13:25N 54°33' E 010°19'0 0.0
2014-Oct-19 12:25N 54°33' E 010°19'0 0.0
2014-Oct-19 11:31N 54°33' E 010°19'0 0.0
2014-Oct-19 10:19N 54°33' E 010°19'0 0.0
2014-Oct-19 09:13N 54°33' E 010°19'0 0.0
2014-Oct-19 08:31N 54°33' E 010°19'0 0.0
2014-Oct-19 07:31N 54°33' E 010°19'0 0.0
2014-Oct-19 06:19N 54°33' E 010°19'0 0.0
2014-Oct-19 05:25N 54°33' E 010°19'0 0.0
2014-Oct-19 04:31N 54°33' E 010°19'0 0.0
2014-Oct-19 03:31N 54°33' E 010°19'0 0.0
2014-Oct-19 02:19N 54°33' E 010°19'0 0.0
2014-Oct-19 01:31N 54°33' E 010°19'0 0.0
2014-Oct-19 00:25N 54°33' E 010°19'0 0.0
2014-Oct-18 23:31N 54°33' E 010°19'0 0.0
2014-Oct-18 22:25N 54°33' E 010°19'0 0.0
2014-Oct-18 21:31N 54°33' E 010°19'0 0.0
2014-Oct-18 20:31N 54°33' E 010°19'0 0.0
2014-Oct-18 19:31N 54°33' E 010°19'0 0.0
2014-Oct-18 18:31N 54°33' E 010°19'0 0.0
2014-Oct-18 17:13N 54°33' E 010°19'0 0.0
2014-Oct-18 16:31N 54°33' E 010°19'0 0.0
2014-Oct-18 15:19N 54°33' E 010°19'0 0.0
2014-Oct-18 14:25N 54°33' E 010°19'0 0.0
2014-Oct-18 13:31N 54°33' E 010°19'0 0.0
2014-Oct-18 12:31N 54°33' E 010°19'0 0.0
2014-Oct-18 11:31N 54°33' E 010°19'6 6.1
2014-Oct-18 10:33N 54°34' E 010°28'1211.8
2014-Oct-18 09:33N 54°35' E 010°49'2412.0
2014-Oct-18 07:33N 54°31' E 011°29'1813.6
2014-Oct-18 06:14N 54°26' E 011°59'711.0
2014-Oct-18 05:33N 54°29' E 012°11'10611.7
2014-Oct-17 20:29N 55°28' E 014°44'1212.1
2014-Oct-17 19:27N 55°35' E 015°02'4112.6
2014-Oct-17 16:14N 55°56' E 016°04'912.8
2014-Oct-17 15:34N 56°00' E 016°17'61 1.6
2014-Oct-16 01:23N 55°27' E 014°46'1111.4
2014-Oct-16 00:27N 55°20' E 014°32'1111.5
2014-Oct-15 23:29N 55°12' E 014°18'4811.3
2014-Oct-15 19:11N 55°15' E 012°54'711.3
2014-Oct-15 18:33N 55°17' E 012°42'10 9.9
2014-Oct-15 17:33N 55°27' E 012°40'9 8.9
2014-Oct-15 16:33N 55°36' E 012°42'8 7.7
2014-Oct-15 15:33N 55°43' E 012°41'1110.5
2014-Oct-15 14:33N 55°54' E 012°39'1010.4
2014-Oct-15 13:33N 56°04' E 012°37'1010.0
2014-Oct-15 12:33N 56°10' E 012°22'1211.7
2014-Oct-15 11:30N 56°17' E 012°04'2711.3
2014-Oct-15 09:07N 56°43' E 011°53'610.9
2014-Oct-15 08:33N 56°49' E 011°50'1111.3
2014-Oct-15 07:33N 56°60' E 011°43'1111.4
2014-Oct-15 06:33N 57°11' E 011°36'1111.3
2014-Oct-15 05:33N 57°21' E 011°29'1211.6
2014-Oct-15 04:33N 57°32' E 011°22'1212.3
2014-Oct-15 03:33N 57°44' E 011°19'1212.2
2014-Oct-15 02:33N 57°57' E 011°16'1111.1
2014-Oct-15 01:33N 58°08' E 011°13'1111.0
2014-Oct-15 00:33N 58°18' E 011°19'5 4.7
2014-Oct-14 23:33N 58°21' E 011°26'0 0.0
2014-Oct-14 22:33N 58°21' E 011°26'0 0.0
2014-Oct-14 21:33N 58°21' E 011°26'0 0.0
2014-Oct-14 20:33N 58°21' E 011°26'0 0.0
2014-Oct-14 19:33N 58°21' E 011°26'0 0.0
2014-Oct-14 18:33N 58°21' E 011°26'0 0.0
2014-Oct-14 17:33N 58°21' E 011°26'0 0.0
2014-Oct-14 16:33N 58°21' E 011°26'0 0.0
2014-Oct-14 15:33N 58°21' E 011°26'0 0.0
2014-Oct-14 14:33N 58°21' E 011°26'1 1.1
2014-Oct-14 13:33N 58°21' E 011°24'10 9.8
2014-Oct-14 12:34N 58°14' E 011°11'3 3.3
2014-Oct-14 11:33N 58°11' E 011°13'9 8.8
2014-Oct-14 10:33N 58°02' E 011°15'9 8.6
2014-Oct-14 09:33N 57°54' E 011°17'9 8.8
2014-Oct-14 08:33N 57°45' E 011°21'8 8.3
2014-Oct-14 07:33N 57°37' E 011°24'1212.1
2014-Oct-14 06:33N 57°25' E 011°29'1312.8
2014-Oct-14 05:33N 57°13' E 011°36'1313.0
2014-Oct-14 04:33N 57°01' E 011°45'1313.1
2014-Oct-14 03:33N 56°48' E 011°52'1312.9
2014-Oct-14 02:33N 56°36' E 011°60'1412.9
2014-Oct-14 01:25N 56°22' E 012°09'1213.3
2014-Oct-14 00:33N 56°13' E 012°21'1413.7
2014-Oct-13 23:34N 56°04' E 012°39'1312.9
2014-Oct-13 22:34N 55°51' E 012°45'1313.2
2014-Oct-13 21:34N 55°40' E 012°57'1110.6
2014-Oct-13 20:33N 55°31' E 012°45'1212.5
2014-Oct-13 19:33N 55°19' E 012°40'1312.8
2014-Oct-13 18:33N 55°06' E 012°42'3410.8
2014-Oct-13 15:25N 54°35' E 012°19'1112.5
2014-Oct-13 14:33N 54°25' E 012°11'1211.8
2014-Oct-13 13:33N 54°14' E 012°04'5 5.1
2014-Oct-13 12:31N 54°09' E 012°08'0 0.0
2014-Oct-13 11:28N 54°09' E 012°08'0 0.0
2014-Oct-13 10:22N 54°09' E 012°08'0 0.0
2014-Oct-13 09:31N 54°09' E 012°08'0 0.0
2014-Oct-13 08:22N 54°09' E 012°08'0 0.0
2014-Oct-13 07:31N 54°09' E 012°08'0 0.0
2014-Oct-13 06:04N 54°09' E 012°08'0 0.0
2014-Oct-13 05:28N 54°09' E 012°08'1 1.4
2014-Oct-13 04:31N 54°09' E 012°06'1 3.7
2014-Oct-13 04:10N 54°09' E 012°08'0 0.0
2014-Oct-13 03:13N 54°09' E 012°08'0 0.0
2014-Oct-13 02:25N 54°09' E 012°08'0 0.0
2014-Oct-13 01:28N 54°09' E 012°08'0 0.0
2014-Oct-13 00:28N 54°09' E 012°08'0 0.0
2014-Oct-12 23:28N 54°09' E 012°08'0 0.0
2014-Oct-12 20:32N 54°10' E 012°08'8 8.2
2014-Oct-12 19:33N 54°16' E 012°00'1111.2
2014-Oct-12 18:33N 54°24' E 011°47'  
Track history (hours):
 
Tides and Currents Weather Stations Pressure Air Temp Water Temp Dewpoint Dewpoint Depression Visibility Wind Speed Wind Dir Waves Ship Positions

Bitflower

Last reported at 2014-Oct-21 13:33 UTC. Time now 2014-Oct-21 13:43 UTC.
Position N 53°42' E 005°41'.

Length 116 m; draft 6.5 m.

Type: Ship. MMSI: 266009000.

Date/timePositionNaut miles runAvg speedWind from/ knotsBaromVisibWave heightAir tempDewpointWater temp
2014-Oct-21 13:33N 53°42' E 005°41'1010.3
2014-Oct-21 12:33N 53°45' E 005°57'6010.9
2014-Oct-21 07:05N 54°00' E 007°35'510.1
2014-Oct-21 06:34N 54°01' E 007°44'1111.0
2014-Oct-21 05:34N 54°01' E 008°03'1312.1
2014-Oct-21 04:30N 53°59' E 008°24'1414.4
2014-Oct-21 03:33N 53°52' E 008°44'1515.1
2014-Oct-21 02:33N 53°53' E 009°09'1312.8
2014-Oct-21 01:33N 53°44' E 009°26'1212.2
2014-Oct-21 00:33N 53°35' E 009°38'1111.2
2014-Oct-20 23:33N 53°32' E 009°56'3 3.3
2014-Oct-20 22:30N 53°29' E 009°57'0 0.0
2014-Oct-20 21:30N 53°29' E 009°57'0 0.0
2014-Oct-20 20:33N 53°29' E 009°57'0 0.0
2014-Oct-20 19:33N 53°29' E 009°57'0 0.0
2014-Oct-20 18:30N 53°29' E 009°57'0 0.0
2014-Oct-20 17:30N 53°29' E 009°57'0 0.0
2014-Oct-20 16:30N 53°29' E 009°57'0 0.0
2014-Oct-20 15:30N 53°29' E 009°57'0 0.0
2014-Oct-20 14:33N 53°29' E 009°57'0 0.0
2014-Oct-20 13:33N 53°29' E 009°57'0 0.0
2014-Oct-20 12:33N 53°29' E 009°57'0 0.0
2014-Oct-20 11:33N 53°29' E 009°57'0 0.0
2014-Oct-20 10:33N 53°29' E 009°57'4 4.3
2014-Oct-20 09:33N 53°32' E 009°54'9 8.6
2014-Oct-20 08:33N 53°34' E 009°40'7 7.1
2014-Oct-20 07:33N 53°39' E 009°31'8 7.5
2014-Oct-20 06:33N 53°45' E 009°24'9 6.8
2014-Oct-20 05:10N 53°53' E 009°15'4 6.4
2014-Oct-20 04:33N 53°53' E 009°08'3 2.9
2014-Oct-20 03:33N 53°55' E 009°12'19 7.7
2014-Oct-20 01:05N 54°11' E 009°30'4 8.2
2014-Oct-20 00:33N 54°14' E 009°36'8 7.5
2014-Oct-19 23:33N 54°20' E 009°44'7 7.4
2014-Oct-19 22:33N 54°20' E 009°56'6 6.0
2014-Oct-19 21:33N 54°22' E 010°06'4 4.1
2014-Oct-19 20:33N 54°24' E 010°12'9 8.9
2014-Oct-19 19:32N 54°32' E 010°19'0 0.3
2014-Oct-19 18:31N 54°33' E 010°19'0 0.0
2014-Oct-19 17:25N 54°33' E 010°19'0 0.0
2014-Oct-19 16:25N 54°33' E 010°19'0 0.0
2014-Oct-19 15:19N 54°33' E 010°19'0 0.0
2014-Oct-19 14:31N 54°33' E 010°19'0 0.0
2014-Oct-19 13:25N 54°33' E 010°19'0 0.0
2014-Oct-19 12:25N 54°33' E 010°19'0 0.0
2014-Oct-19 11:31N 54°33' E 010°19'0 0.0
2014-Oct-19 10:19N 54°33' E 010°19'0 0.0
2014-Oct-19 09:13N 54°33' E 010°19'0 0.0
2014-Oct-19 08:31N 54°33' E 010°19'0 0.0
2014-Oct-19 07:31N 54°33' E 010°19'0 0.0
2014-Oct-19 06:19N 54°33' E 010°19'0 0.0
2014-Oct-19 05:25N 54°33' E 010°19'0 0.0
2014-Oct-19 04:31N 54°33' E 010°19'0 0.0
2014-Oct-19 03:31N 54°33' E 010°19'0 0.0
2014-Oct-19 02:19N 54°33' E 010°19'0 0.0
2014-Oct-19 01:31N 54°33' E 010°19'0 0.0
2014-Oct-19 00:25N 54°33' E 010°19'0 0.0
2014-Oct-18 23:31N 54°33' E 010°19'0 0.0
2014-Oct-18 22:25N 54°33' E 010°19'0 0.0
2014-Oct-18 21:31N 54°33' E 010°19'0 0.0
2014-Oct-18 20:31N 54°33' E 010°19'0 0.0
2014-Oct-18 19:31N 54°33' E 010°19'0 0.0
2014-Oct-18 18:31N 54°33' E 010°19'0 0.0
2014-Oct-18 17:13N 54°33' E 010°19'0 0.0
2014-Oct-18 16:31N 54°33' E 010°19'0 0.0
2014-Oct-18 15:19N 54°33' E 010°19'0 0.0
2014-Oct-18 14:25N 54°33' E 010°19'0 0.0
2014-Oct-18 13:31N 54°33' E 010°19'0 0.0
2014-Oct-18 12:31N 54°33' E 010°19'0 0.0
2014-Oct-18 11:31N 54°33' E 010°19'6 6.1
2014-Oct-18 10:33N 54°34' E 010°28'1211.8
2014-Oct-18 09:33N 54°35' E 010°49'2412.0
2014-Oct-18 07:33N 54°31' E 011°29'1813.6
2014-Oct-18 06:14N 54°26' E 011°59'711.0
2014-Oct-18 05:33N 54°29' E 012°11'10611.7
2014-Oct-17 20:29N 55°28' E 014°44'1212.1
2014-Oct-17 19:27N 55°35' E 015°02'4112.6
2014-Oct-17 16:14N 55°56' E 016°04'912.8
2014-Oct-17 15:34N 56°00' E 016°17'61 1.6
2014-Oct-16 01:23N 55°27' E 014°46'1111.4
2014-Oct-16 00:27N 55°20' E 014°32'1111.5
2014-Oct-15 23:29N 55°12' E 014°18'4811.3
2014-Oct-15 19:11N 55°15' E 012°54'711.3
2014-Oct-15 18:33N 55°17' E 012°42'10 9.9
2014-Oct-15 17:33N 55°27' E 012°40'9 8.9
2014-Oct-15 16:33N 55°36' E 012°42'8 7.7
2014-Oct-15 15:33N 55°43' E 012°41'1110.5
2014-Oct-15 14:33N 55°54' E 012°39'1010.4
2014-Oct-15 13:33N 56°04' E 012°37'1010.0
2014-Oct-15 12:33N 56°10' E 012°22'1211.7
2014-Oct-15 11:30N 56°17' E 012°04'2711.3
2014-Oct-15 09:07N 56°43' E 011°53'610.9
2014-Oct-15 08:33N 56°49' E 011°50'1111.3
2014-Oct-15 07:33N 56°60' E 011°43'1111.4
2014-Oct-15 06:33N 57°11' E 011°36'1111.3
2014-Oct-15 05:33N 57°21' E 011°29'1211.6
2014-Oct-15 04:33N 57°32' E 011°22'1212.3
2014-Oct-15 03:33N 57°44' E 011°19'1212.2
2014-Oct-15 02:33N 57°57' E 011°16'1111.1
2014-Oct-15 01:33N 58°08' E 011°13'1111.0
2014-Oct-15 00:33N 58°18' E 011°19'5 4.7
2014-Oct-14 23:33N 58°21' E 011°26'0 0.0
2014-Oct-14 22:33N 58°21' E 011°26'0 0.0
2014-Oct-14 21:33N 58°21' E 011°26'0 0.0
2014-Oct-14 20:33N 58°21' E 011°26'0 0.0
2014-Oct-14 19:33N 58°21' E 011°26'0 0.0
2014-Oct-14 18:33N 58°21' E 011°26'0 0.0
2014-Oct-14 17:33N 58°21' E 011°26'0 0.0
2014-Oct-14 16:33N 58°21' E 011°26'0 0.0
2014-Oct-14 15:33N 58°21' E 011°26'0 0.0
2014-Oct-14 14:33N 58°21' E 011°26'1 1.1
2014-Oct-14 13:33N 58°21' E 011°24'10 9.8
2014-Oct-14 12:34N 58°14' E 011°11'3 3.3
2014-Oct-14 11:33N 58°11' E 011°13'9 8.8
2014-Oct-14 10:33N 58°02' E 011°15'9 8.6
2014-Oct-14 09:33N 57°54' E 011°17'9 8.8
2014-Oct-14 08:33N 57°45' E 011°21'8 8.3
2014-Oct-14 07:33N 57°37' E 011°24'1212.1
2014-Oct-14 06:33N 57°25' E 011°29'1312.8
2014-Oct-14 05:33N 57°13' E 011°36'1313.0
2014-Oct-14 04:33N 57°01' E 011°45'1313.1
2014-Oct-14 03:33N 56°48' E 011°52'1312.9
2014-Oct-14 02:33N 56°36' E 011°60'1412.9
2014-Oct-14 01:25N 56°22' E 012°09'1213.3
2014-Oct-14 00:33N 56°13' E 012°21'1413.7
2014-Oct-13 23:34N 56°04' E 012°39'1312.9
2014-Oct-13 22:34N 55°51' E 012°45'1313.2
2014-Oct-13 21:34N 55°40' E 012°57'1110.6
2014-Oct-13 20:33N 55°31' E 012°45'1212.5
2014-Oct-13 19:33N 55°19' E 012°40'1312.8
2014-Oct-13 18:33N 55°06' E 012°42'3410.8
2014-Oct-13 15:25N 54°35' E 012°19'1112.5
2014-Oct-13 14:33N 54°25' E 012°11'1211.8
2014-Oct-13 13:33N 54°14' E 012°04'5 5.1
2014-Oct-13 12:31N 54°09' E 012°08'0 0.0
2014-Oct-13 11:28N 54°09' E 012°08'0 0.0
2014-Oct-13 10:22N 54°09' E 012°08'0 0.0
2014-Oct-13 09:31N 54°09' E 012°08'0 0.0
2014-Oct-13 08:22N 54°09' E 012°08'0 0.0
2014-Oct-13 07:31N 54°09' E 012°08'0 0.0
2014-Oct-13 06:04N 54°09' E 012°08'0 0.0
2014-Oct-13 05:28N 54°09' E 012°08'1 1.4
2014-Oct-13 04:31N 54°09' E 012°06'1 3.7
2014-Oct-13 04:10N 54°09' E 012°08'0 0.0
2014-Oct-13 03:13N 54°09' E 012°08'0 0.0
2014-Oct-13 02:25N 54°09' E 012°08'0 0.0
2014-Oct-13 01:28N 54°09' E 012°08'0 0.0
2014-Oct-13 00:28N 54°09' E 012°08'0 0.0
2014-Oct-12 23:28N 54°09' E 012°08'0 0.0
2014-Oct-12 20:32N 54°10' E 012°08'8 8.2
2014-Oct-12 19:33N 54°16' E 012°00'1111.2
2014-Oct-12 18:33N 54°24' E 011°47'  

Dump ship's entire track history